createdAt,value
2019-03-17T00:00:09.210Z,54.80
2019-03-17T00:02:40.556Z,54.80
2019-03-17T00:05:10.450Z,54.80
2019-03-17T00:07:40.215Z,54.70
2019-03-17T00:10:10.024Z,54.80
2019-03-17T00:12:39.682Z,54.70
2019-03-17T00:15:09.515Z,54.70
2019-03-17T00:17:41.808Z,54.70
2019-03-17T00:20:11.584Z,54.70
2019-03-17T00:22:41.243Z,54.70
2019-03-17T00:25:10.990Z,54.60
2019-03-17T00:27:40.726Z,54.60
2019-03-17T00:30:10.766Z,54.60
2019-03-17T00:32:40.499Z,54.60
2019-03-17T00:35:10.316Z,54.50
2019-03-17T00:37:39.974Z,54.50
2019-03-17T00:40:09.843Z,54.50
2019-03-17T00:42:39.579Z,54.50
2019-03-17T00:45:11.604Z,54.50
2019-03-17T00:47:40.803Z,54.50
2019-03-17T00:50:10.636Z,54.50
2019-03-17T00:52:40.290Z,54.40
2019-03-17T00:55:10.040Z,54.30
2019-03-17T00:57:39.760Z,54.40
2019-03-17T01:00:10.923Z,54.40
2019-03-17T01:02:40.575Z,54.40
2019-03-17T01:05:10.486Z,54.40
2019-03-17T01:07:40.164Z,54.40
2019-03-17T01:10:10.087Z,54.30
2019-03-17T01:12:39.819Z,54.30
2019-03-17T01:15:10.030Z,54.30
2019-03-17T01:17:39.668Z,54.30
2019-03-17T01:20:09.419Z,54.30
2019-03-17T01:22:39.087Z,54.30
2019-03-17T01:25:09.039Z,54.30
2019-03-17T01:27:38.700Z,54.30
2019-03-17T01:30:08.770Z,54.20
2019-03-17T01:32:38.576Z,54.20
2019-03-17T01:35:09.965Z,54.30
2019-03-17T01:37:40.030Z,54.90
2019-03-17T01:40:09.960Z,54.20
2019-03-17T01:42:39.770Z,54.20
2019-03-17T01:45:09.609Z,54.20
2019-03-17T01:47:39.347Z,54.20
2019-03-17T01:50:09.180Z,54.20
2019-03-17T01:52:38.912Z,54.20
2019-03-17T01:55:08.723Z,54.20
2019-03-17T01:57:38.421Z,54.80
2019-03-17T02:00:08.766Z,54.20
2019-03-17T02:02:38.423Z,54.20
2019-03-17T02:05:20.952Z,54.20
2019-03-17T02:07:39.530Z,54.20
2019-03-17T02:10:09.416Z,54.20
2019-03-17T02:12:39.085Z,54.20
2019-03-17T02:15:09.860Z,54.20
2019-03-17T02:17:39.527Z,54.10
2019-03-17T02:20:09.433Z,54.10
2019-03-17T02:22:39.173Z,54.20
2019-03-17T02:25:09.002Z,54.10
2019-03-17T02:27:39.651Z,54.10
2019-03-17T02:30:09.955Z,54.10
2019-03-17T02:32:39.614Z,54.10
2019-03-17T02:35:09.347Z,54.10
2019-03-17T02:37:39.084Z,54.10
2019-03-17T02:40:09.081Z,54.10
2019-03-17T02:42:38.743Z,54.10
2019-03-17T02:45:08.742Z,54.10
2019-03-17T02:47:38.404Z,54.00
2019-03-17T02:50:08.921Z,54.00
2019-03-17T02:52:39.539Z,54.00
2019-03-17T02:55:09.387Z,54.00
2019-03-17T02:57:39.246Z,54.00
2019-03-17T03:00:10.147Z,54.00
2019-03-17T03:02:39.807Z,53.90
2019-03-17T03:05:09.615Z,53.90
2019-03-17T03:07:39.359Z,53.90
2019-03-17T03:10:09.182Z,53.90
2019-03-17T03:12:38.834Z,53.80
2019-03-17T03:15:08.676Z,53.80
2019-03-17T03:17:38.319Z,53.80
2019-03-17T03:20:08.158Z,53.80
2019-03-17T03:22:37.832Z,53.80
2019-03-17T03:25:07.860Z,53.80
2019-03-17T03:27:37.600Z,53.70
2019-03-17T03:30:08.088Z,53.80
2019-03-17T03:32:37.979Z,53.70
2019-03-17T03:35:08.371Z,53.70
2019-03-17T03:37:38.073Z,53.70
2019-03-17T03:40:08.605Z,53.60
2019-03-17T03:42:38.272Z,53.70
2019-03-17T03:45:08.918Z,53.60
2019-03-17T03:47:38.663Z,53.70
2019-03-17T03:50:08.558Z,53.70
2019-03-17T03:52:38.214Z,53.80
2019-03-17T03:55:09.018Z,53.80
2019-03-17T03:57:38.699Z,53.80
2019-03-17T04:00:08.816Z,53.80
2019-03-17T04:02:38.483Z,53.90
2019-03-17T04:05:08.324Z,53.90
2019-03-17T04:07:37.982Z,53.80
2019-03-17T04:10:08.041Z,53.90
2019-03-17T04:12:37.763Z,53.80
2019-03-17T04:15:07.726Z,53.90
2019-03-17T04:17:37.452Z,53.90
2019-03-17T04:20:07.303Z,53.90
2019-03-17T04:22:37.087Z,53.90
2019-03-17T04:25:07.176Z,53.90
2019-03-17T04:27:36.863Z,53.90
2019-03-17T04:30:06.907Z,53.90
2019-03-17T04:32:36.579Z,53.90
2019-03-17T04:35:06.698Z,53.80
2019-03-17T04:37:36.388Z,53.70
2019-03-17T04:40:06.240Z,53.70
2019-03-17T04:42:35.971Z,53.70
2019-03-17T04:45:06.023Z,53.60
2019-03-17T04:47:35.787Z,53.60
2019-03-17T04:50:05.689Z,53.50
2019-03-17T04:52:35.354Z,53.50
2019-03-17T04:55:05.636Z,53.60
2019-03-17T04:57:35.319Z,53.50
2019-03-17T05:00:05.672Z,53.50
2019-03-17T05:02:35.402Z,53.50
2019-03-17T05:05:05.488Z,53.40
2019-03-17T05:07:35.144Z,53.40
2019-03-17T05:10:05.638Z,53.50
2019-03-17T05:12:36.343Z,53.60
2019-03-17T05:15:07.255Z,53.60
2019-03-17T05:17:36.918Z,53.60
2019-03-17T05:20:07.492Z,53.70
2019-03-17T05:22:37.163Z,53.80
2019-03-17T05:25:07.401Z,53.80
2019-03-17T05:27:37.069Z,53.70
2019-03-17T05:30:06.999Z,53.60
2019-03-17T05:32:36.676Z,53.40
2019-03-17T05:35:06.550Z,53.40
2019-03-17T05:37:36.207Z,53.20
2019-03-17T05:40:06.016Z,53.10
2019-03-17T05:42:35.680Z,53.00
2019-03-17T05:45:05.819Z,53.00
2019-03-17T05:47:35.488Z,53.10
2019-03-17T05:50:05.619Z,53.30
2019-03-17T05:52:35.390Z,53.40
2019-03-17T05:55:05.415Z,53.40
2019-03-17T05:57:35.165Z,53.30
2019-03-17T06:00:05.339Z,53.10
2019-03-17T06:02:34.999Z,53.10
2019-03-17T06:05:05.036Z,53.00
2019-03-17T06:07:34.708Z,53.00
2019-03-17T06:10:04.806Z,53.00
2019-03-17T06:12:34.489Z,53.20
2019-03-17T06:15:04.497Z,53.30
2019-03-17T06:17:34.180Z,53.40
2019-03-17T06:20:04.051Z,53.60
2019-03-17T06:22:33.730Z,53.50
2019-03-17T06:25:03.576Z,53.40
2019-03-17T06:27:33.265Z,53.50
2019-03-17T06:30:03.010Z,53.60
2019-03-17T06:32:32.683Z,53.80
2019-03-17T06:35:02.410Z,53.90
2019-03-17T06:37:32.070Z,54.00
2019-03-17T06:40:01.742Z,54.10
2019-03-17T06:42:31.414Z,54.20
2019-03-17T06:45:01.084Z,54.20
2019-03-17T06:47:30.751Z,54.30
2019-03-17T06:50:00.404Z,54.30
2019-03-17T06:52:30.072Z,54.30
2019-03-17T06:54:59.959Z,54.40
2019-03-17T06:57:30.606Z,54.50
2019-03-17T07:00:01.235Z,54.50
2019-03-17T07:02:30.983Z,54.60
2019-03-17T07:05:00.646Z,54.50
2019-03-17T07:07:42.955Z,54.50
2019-03-17T07:10:01.675Z,54.40
2019-03-17T07:12:31.343Z,54.40
2019-03-17T07:15:01.003Z,54.40
2019-03-17T07:17:30.675Z,54.40
2019-03-17T07:20:00.499Z,54.50
2019-03-17T07:22:30.170Z,54.50
2019-03-17T07:24:59.846Z,54.50
2019-03-17T07:27:29.528Z,54.50
2019-03-17T07:29:59.207Z,54.60
2019-03-17T07:35:51.889Z,54.60
2019-03-17T07:38:21.553Z,54.60
2019-03-17T07:40:51.290Z,54.50
2019-03-17T07:43:20.952Z,54.50
2019-03-17T07:45:50.616Z,54.50
2019-03-17T07:48:20.282Z,54.50
2019-03-17T07:50:49.963Z,54.50
2019-03-17T07:53:19.622Z,54.40
2019-03-17T07:55:49.278Z,54.40
2019-03-17T07:58:19.093Z,54.40
2019-03-17T08:00:48.831Z,54.40
2019-03-17T08:03:18.594Z,54.40
2019-03-17T08:05:48.252Z,54.30
2019-03-17T08:08:17.919Z,54.20
2019-03-17T08:10:48.569Z,54.20
2019-03-17T08:13:18.361Z,54.30
2019-03-17T08:15:48.011Z,54.40
2019-03-17T08:18:17.703Z,54.30
2019-03-17T08:20:47.430Z,54.30
2019-03-17T08:23:17.127Z,54.30
2019-03-17T08:25:46.788Z,54.20
2019-03-17T08:28:17.522Z,54.10
2019-03-17T08:30:53.215Z,54.20
2019-03-17T08:33:18.611Z,54.20
2019-03-17T08:35:48.304Z,54.30
2019-03-17T08:38:22.144Z,54.50
2019-03-17T08:40:49.383Z,54.50
2019-03-17T08:43:19.061Z,54.60
2019-03-17T08:45:48.734Z,54.50
2019-03-17T08:48:18.486Z,54.30
2019-03-17T08:50:48.204Z,53.90
2019-03-17T08:53:17.867Z,54.10
2019-03-17T08:55:47.611Z,53.50
2019-03-17T08:58:17.375Z,53.70
2019-03-17T09:00:47.111Z,53.60
2019-03-17T09:03:16.787Z,53.60
2019-03-17T09:05:46.530Z,53.60
2019-03-17T09:08:16.215Z,53.70
2019-03-17T09:10:45.883Z,53.90
2019-03-17T09:13:15.560Z,54.00
2019-03-17T09:15:45.217Z,54.00
2019-03-17T09:18:14.883Z,54.10
2019-03-17T09:20:44.642Z,54.10
2019-03-17T09:23:14.311Z,54.10
2019-03-17T09:25:43.986Z,54.10
2019-03-17T09:28:13.652Z,54.10
2019-03-17T09:30:43.389Z,54.10
2019-03-17T09:33:13.050Z,54.10
2019-03-17T09:35:42.751Z,54.20
2019-03-17T09:38:12.504Z,54.30
2019-03-17T09:40:42.423Z,54.40
2019-03-17T09:43:12.082Z,54.40
2019-03-17T09:45:41.750Z,54.40
2019-03-17T09:48:11.483Z,54.30
2019-03-17T09:50:41.144Z,54.20
2019-03-17T09:53:10.833Z,54.20
2019-03-17T09:55:40.496Z,54.20
2019-03-17T09:58:10.296Z,54.10
2019-03-17T10:00:40.050Z,54.10
2019-03-17T10:03:09.734Z,54.00
2019-03-17T10:05:39.398Z,53.90
2019-03-17T10:08:09.075Z,53.80
2019-03-17T10:10:38.887Z,53.80
2019-03-17T10:13:08.636Z,53.90
2019-03-17T10:15:38.286Z,53.90
2019-03-17T10:18:07.988Z,53.80
2019-03-17T10:20:37.654Z,53.70
2019-03-17T10:23:07.322Z,53.60
2019-03-17T10:25:36.981Z,53.30
2019-03-17T10:28:06.670Z,53.00
2019-03-17T10:30:37.355Z,52.80
2019-03-17T10:33:07.032Z,53.00
2019-03-17T10:35:36.692Z,53.20
2019-03-17T10:38:06.355Z,53.30
2019-03-17T10:40:36.146Z,53.30
2019-03-17T10:43:05.880Z,53.20
2019-03-17T10:45:35.540Z,53.30
2019-03-17T10:48:05.364Z,53.40
2019-03-17T10:50:35.082Z,53.60
2019-03-17T10:53:04.943Z,53.60
2019-03-17T10:55:34.607Z,53.20
2019-03-17T10:58:04.367Z,53.00
2019-03-17T11:00:34.163Z,53.00
2019-03-17T11:03:03.905Z,53.00
2019-03-17T11:05:33.567Z,53.10
2019-03-17T11:08:03.246Z,53.10
2019-03-17T11:10:34.666Z,52.90
2019-03-17T11:13:04.519Z,52.50
2019-03-17T11:15:34.334Z,52.00
2019-03-17T11:18:04.074Z,51.60
2019-03-17T11:20:33.731Z,51.40
2019-03-17T11:23:04.455Z,51.20
2019-03-17T11:25:34.187Z,51.30
2019-03-17T11:28:03.867Z,51.30
2019-03-17T11:30:33.637Z,51.20
2019-03-17T11:33:03.430Z,51.00
2019-03-17T11:35:33.081Z,51.00
2019-03-17T11:38:02.769Z,51.20
2019-03-17T11:40:34.011Z,51.10
2019-03-17T11:43:03.679Z,51.40
2019-03-17T11:45:33.348Z,51.90
2019-03-17T11:48:03.200Z,52.50
2019-03-17T11:50:32.855Z,53.00
2019-03-17T11:53:02.591Z,53.40
2019-03-17T11:55:32.251Z,53.50
2019-03-17T11:58:01.939Z,53.60
2019-03-17T12:00:31.662Z,53.50
2019-03-17T12:03:01.338Z,53.70
2019-03-17T12:05:31.003Z,53.70
2019-03-17T12:08:00.671Z,53.80
2019-03-17T12:10:30.400Z,53.80
2019-03-17T12:13:00.068Z,53.90
2019-03-17T12:15:29.863Z,53.90
2019-03-17T12:17:59.779Z,54.10
2019-03-17T12:20:29.430Z,54.10
2019-03-17T12:22:59.187Z,54.00
2019-03-17T12:25:28.952Z,53.90
2019-03-17T12:27:58.637Z,53.90
2019-03-17T12:30:28.379Z,53.90
2019-03-17T12:32:58.049Z,53.70
2019-03-17T12:35:27.716Z,53.70
2019-03-17T12:37:57.515Z,53.70
2019-03-17T12:40:27.206Z,53.70
2019-03-17T12:42:56.919Z,53.70
2019-03-17T12:45:26.743Z,53.70
2019-03-17T12:47:56.405Z,53.80
2019-03-17T12:50:26.098Z,53.80
2019-03-17T12:52:55.967Z,53.90
2019-03-17T12:55:25.798Z,54.00
2019-03-17T12:57:55.542Z,54.00
2019-03-17T13:00:25.266Z,53.90
2019-03-17T13:02:54.944Z,53.70
2019-03-17T13:05:24.614Z,53.50
2019-03-17T13:07:54.319Z,53.30
2019-03-17T13:10:23.995Z,53.10
2019-03-17T13:12:54.792Z,52.90
2019-03-17T13:15:24.448Z,52.90
2019-03-17T13:17:54.101Z,52.90
2019-03-17T13:20:23.846Z,53.00
2019-03-17T13:22:53.546Z,53.20
2019-03-17T13:25:23.368Z,53.30
2019-03-17T13:27:53.103Z,53.40
2019-03-17T13:30:22.867Z,53.50
2019-03-17T13:32:52.543Z,53.40
2019-03-17T13:35:23.250Z,53.40
2019-03-17T13:37:52.923Z,53.40
2019-03-17T13:40:30.268Z,53.70
2019-03-17T13:42:53.979Z,53.90
2019-03-17T13:45:23.668Z,54.20
2019-03-17T13:47:53.516Z,54.40
2019-03-17T13:50:23.387Z,54.50
2019-03-17T13:52:53.116Z,54.60
2019-03-17T13:55:23.859Z,54.60
2019-03-17T13:57:55.603Z,54.50
2019-03-17T14:00:25.301Z,54.30
2019-03-17T14:02:55.120Z,54.10
2019-03-17T14:05:24.876Z,54.10
2019-03-17T14:07:54.543Z,54.10
2019-03-17T14:10:24.298Z,54.10
2019-03-17T14:12:53.963Z,54.10
2019-03-17T14:15:23.639Z,54.10
2019-03-17T14:17:53.299Z,54.10
2019-03-17T14:20:22.976Z,54.10
2019-03-17T14:22:52.646Z,54.20
2019-03-17T14:25:24.414Z,54.10
2019-03-17T14:27:54.072Z,54.30
2019-03-17T14:30:23.915Z,54.30
2019-03-17T14:32:53.642Z,54.20
2019-03-17T14:35:23.315Z,54.20
2019-03-17T14:37:53.128Z,54.30
2019-03-17T14:40:22.960Z,54.40
2019-03-17T14:42:55.191Z,54.40
2019-03-17T14:45:24.275Z,54.30
2019-03-17T14:47:53.935Z,54.30
2019-03-17T14:50:23.775Z,54.20
2019-03-17T14:52:53.687Z,54.20
2019-03-17T14:55:23.438Z,54.10
2019-03-17T14:57:53.118Z,54.10
2019-03-17T15:00:22.933Z,54.10
2019-03-17T15:02:52.674Z,54.00
2019-03-17T15:05:25.266Z,54.00
2019-03-17T15:07:53.878Z,54.00
2019-03-17T15:10:24.619Z,53.90
2019-03-17T15:12:54.354Z,53.80
2019-03-17T15:15:24.034Z,53.80
2019-03-17T15:17:53.754Z,53.70
2019-03-17T15:20:23.463Z,53.70
2019-03-17T15:22:53.198Z,53.70
2019-03-17T15:25:22.947Z,53.70
2019-03-17T15:27:52.626Z,53.60
2019-03-17T15:30:23.404Z,53.60
2019-03-17T15:32:53.077Z,53.50
2019-03-17T15:35:22.755Z,53.40
2019-03-17T15:37:52.428Z,53.30
2019-03-17T15:40:22.124Z,53.20
2019-03-17T15:42:51.927Z,53.30
2019-03-17T15:45:21.687Z,53.40
2019-03-17T15:47:51.515Z,53.40
2019-03-17T15:50:21.387Z,53.50
2019-03-17T15:52:51.056Z,53.50
2019-03-17T15:55:20.947Z,53.60
2019-03-17T15:57:50.683Z,53.80
2019-03-17T16:00:25.629Z,53.80
2019-03-17T16:02:52.185Z,53.90
2019-03-17T16:05:22.111Z,54.00
2019-03-17T16:07:51.843Z,54.10
2019-03-17T16:10:21.696Z,54.20
2019-03-17T16:12:51.442Z,54.20
2019-03-17T16:15:21.459Z,54.00
2019-03-17T16:17:51.273Z,53.90
2019-03-17T16:20:21.053Z,53.90
2019-03-17T16:22:50.917Z,54.00
2019-03-17T16:25:20.645Z,54.00
2019-03-17T16:27:50.379Z,54.10
2019-03-17T16:30:22.203Z,54.20
2019-03-17T16:32:52.039Z,54.30
2019-03-17T16:35:21.879Z,54.30
2019-03-17T16:37:51.624Z,54.40
2019-03-17T16:40:22.049Z,54.40
2019-03-17T16:42:53.849Z,54.30
2019-03-17T16:45:23.334Z,54.30
2019-03-17T16:47:53.132Z,54.30
2019-03-17T16:50:22.831Z,54.40
2019-03-17T16:52:52.587Z,54.50
2019-03-17T16:55:22.346Z,54.60
2019-03-17T16:57:52.162Z,54.70
2019-03-17T17:00:22.111Z,54.80
2019-03-17T17:02:51.805Z,54.80
2019-03-17T17:05:21.612Z,54.80
2019-03-17T17:07:51.311Z,55.00
2019-03-17T17:10:21.183Z,55.00
2019-03-17T17:12:50.927Z,55.00
2019-03-17T17:15:22.206Z,55.00
2019-03-17T17:17:52.917Z,55.00
2019-03-17T17:20:24.523Z,55.10
2019-03-17T17:22:55.307Z,55.10
2019-03-17T17:25:25.055Z,55.10
2019-03-17T17:27:54.716Z,55.20
2019-03-17T17:30:24.485Z,55.10
2019-03-17T17:32:54.218Z,55.20
2019-03-17T17:35:24.029Z,55.20
2019-03-17T17:37:53.761Z,55.20
2019-03-17T17:40:23.519Z,55.30
2019-03-17T17:42:53.343Z,55.30
2019-03-17T17:45:23.037Z,55.30
2019-03-17T17:47:52.757Z,55.30
2019-03-17T17:50:22.445Z,55.30
2019-03-17T17:52:52.186Z,55.30
2019-03-17T17:55:21.954Z,55.40
2019-03-17T17:57:53.054Z,55.40
2019-03-17T18:00:23.359Z,55.40
2019-03-17T18:02:53.138Z,55.40
2019-03-17T18:05:23.125Z,55.30
2019-03-17T18:07:53.861Z,55.30
2019-03-17T18:10:23.545Z,55.40
2019-03-17T18:12:53.220Z,55.50
2019-03-17T18:15:23.002Z,55.40
2019-03-17T18:17:52.700Z,55.40
2019-03-17T18:20:22.571Z,55.30
2019-03-17T18:22:52.399Z,55.30
2019-03-17T18:25:22.130Z,55.30
2019-03-17T18:27:52.011Z,55.30
2019-03-17T18:30:21.830Z,55.30
2019-03-17T18:32:51.580Z,55.30
2019-03-17T18:35:21.575Z,55.30
2019-03-17T18:37:51.574Z,55.30
2019-03-17T18:40:21.421Z,55.30
2019-03-17T18:42:51.265Z,55.30
2019-03-17T18:45:21.099Z,55.30
2019-03-17T18:47:50.889Z,55.30
2019-03-17T18:50:21.270Z,55.30
2019-03-17T18:52:51.009Z,55.20
2019-03-17T18:55:21.730Z,55.20
2019-03-17T18:57:51.435Z,55.20
2019-03-17T19:00:21.172Z,55.20
2019-03-17T19:02:50.954Z,55.10
2019-03-17T19:05:21.657Z,55.10
2019-03-17T19:07:51.402Z,55.00
2019-03-17T19:10:21.239Z,55.10
2019-03-17T19:12:51.027Z,55.00
2019-03-17T19:15:20.850Z,55.00
2019-03-17T19:17:50.620Z,55.00
2019-03-17T19:20:20.378Z,55.00
2019-03-17T19:22:50.143Z,54.90
2019-03-17T19:25:19.991Z,55.00
2019-03-17T19:27:49.730Z,55.00
2019-03-17T19:30:19.774Z,55.00
2019-03-17T19:32:49.511Z,55.10
2019-03-17T19:35:19.330Z,55.10
2019-03-17T19:37:49.159Z,55.10
2019-03-17T19:40:18.912Z,55.00
2019-03-17T19:42:58.791Z,55.00
2019-03-17T19:45:20.823Z,55.10
2019-03-17T19:47:52.261Z,55.10
2019-03-17T19:50:22.215Z,55.00
2019-03-17T19:52:51.906Z,55.00
2019-03-17T19:55:21.632Z,55.00
2019-03-17T19:57:51.315Z,55.00
2019-03-17T20:00:21.322Z,55.00
2019-03-17T20:02:51.148Z,55.00
2019-03-17T20:05:20.806Z,55.00
2019-03-17T20:07:50.491Z,55.10
2019-03-17T20:10:21.405Z,55.00
2019-03-17T20:12:51.153Z,55.00
2019-03-17T20:15:20.984Z,55.00
2019-03-17T20:17:50.829Z,55.00
2019-03-17T20:20:20.567Z,55.00
2019-03-17T20:22:50.252Z,55.00
2019-03-17T20:25:19.910Z,55.00
2019-03-17T20:27:49.674Z,55.00
2019-03-17T20:30:19.397Z,55.00
2019-03-17T20:32:49.230Z,55.00
2019-03-17T20:35:18.956Z,55.00
2019-03-17T20:37:48.709Z,55.00
2019-03-17T20:40:18.581Z,55.00
2019-03-17T20:42:48.341Z,55.00
2019-03-17T20:45:20.382Z,55.00
2019-03-17T20:47:49.522Z,55.00
2019-03-17T20:50:20.316Z,55.00
2019-03-17T20:52:49.987Z,54.90
2019-03-17T20:55:19.643Z,54.90
2019-03-17T20:57:49.322Z,54.90
2019-03-17T21:00:19.171Z,54.90
2019-03-17T21:02:49.116Z,54.90
2019-03-17T21:05:18.977Z,54.90
2019-03-17T21:07:48.686Z,54.90
2019-03-17T21:10:18.651Z,54.80
2019-03-17T21:12:48.403Z,54.80
2019-03-17T21:15:18.167Z,54.80
2019-03-17T21:17:47.919Z,54.80
2019-03-17T21:20:17.762Z,54.80
2019-03-17T21:22:47.491Z,54.80
2019-03-17T21:25:18.558Z,54.70
2019-03-17T21:27:48.355Z,54.70
2019-03-17T21:30:19.424Z,54.70
2019-03-17T21:32:49.100Z,54.70
2019-03-17T21:35:18.860Z,54.70
2019-03-17T21:37:48.811Z,54.60
2019-03-17T21:40:18.538Z,54.60
2019-03-17T21:42:48.240Z,54.60
2019-03-17T21:45:17.933Z,54.60
2019-03-17T21:47:47.663Z,54.50
2019-03-17T21:50:17.495Z,54.50
2019-03-17T21:52:47.302Z,54.40
2019-03-17T21:55:17.106Z,54.40
2019-03-17T21:57:47.027Z,54.40
2019-03-17T22:00:17.839Z,54.40
2019-03-17T22:02:47.745Z,54.30
2019-03-17T22:05:17.760Z,54.40
2019-03-17T22:07:50.561Z,54.30
2019-03-17T22:10:20.104Z,54.40
2019-03-17T22:12:49.962Z,54.40
2019-03-17T22:15:19.790Z,54.30
2019-03-17T22:17:49.569Z,54.40
2019-03-17T22:20:19.323Z,54.40
2019-03-17T22:22:49.006Z,54.40
2019-03-17T22:25:18.691Z,54.40
2019-03-17T22:27:48.363Z,54.30
2019-03-17T22:30:18.124Z,54.20
2019-03-17T22:32:47.804Z,54.20
2019-03-17T22:35:17.622Z,54.20
2019-03-17T22:37:47.370Z,54.20
2019-03-17T22:40:17.079Z,54.10
2019-03-17T22:42:46.995Z,54.00
2019-03-17T22:45:17.159Z,54.10
2019-03-17T22:47:46.902Z,54.30
2019-03-17T22:50:16.683Z,54.50
2019-03-17T22:52:46.498Z,54.50
2019-03-17T22:55:16.338Z,54.50
2019-03-17T22:57:46.015Z,54.50
2019-03-17T23:00:19.321Z,54.50
2019-03-17T23:02:50.680Z,54.50
2019-03-17T23:05:20.424Z,54.50
2019-03-17T23:07:50.115Z,54.50
2019-03-17T23:10:19.827Z,54.50
2019-03-17T23:12:49.567Z,54.50
2019-03-17T23:15:19.302Z,55.10
2019-03-17T23:17:48.983Z,54.50
2019-03-17T23:20:18.730Z,54.60
2019-03-17T23:22:48.460Z,54.50
2019-03-17T23:25:18.205Z,54.50
2019-03-17T23:27:47.959Z,54.40
2019-03-17T23:30:17.789Z,54.40
2019-03-17T23:32:49.404Z,54.40
2019-03-17T23:35:19.444Z,54.30
2019-03-17T23:37:49.115Z,54.30
2019-03-17T23:40:18.934Z,54.90
2019-03-17T23:42:48.590Z,54.30
2019-03-17T23:45:18.350Z,54.20
2019-03-17T23:47:48.129Z,54.20
2019-03-17T23:50:17.883Z,54.20
2019-03-17T23:52:47.597Z,54.20
2019-03-17T23:55:17.344Z,54.20
2019-03-17T23:57:47.036Z,54.20
